M/V Hera — V7UA5 — position and weather

sailwx.info

Track history (hours):
 
Tides and Currents Weather Stations Pressure Air Temp Water Temp Dewpoint Dewpoint Depression Visibility Wind Speed Wind Dir Waves Ship Positions

M/V Hera

Last reported at 2014-Sep-30 03:25 UTC. Time now 2014-Oct-01 06:04 UTC.
Position S 33°52' W 058°26'.

Length 175 m; draft 9.2 m.

Type: Cargo ship. MMSI: 538003917.

Date/timePositionNaut miles runAvg speedWind from/ knotsBaromVisibWave heightAir tempDewpointWater temp
2014-Sep-30 03:25S 33°52' W 058°26'0 0.0
2014-Sep-29 23:12S 33°52' W 058°26'17 6.5
2014-Sep-29 20:33S 34°08' W 058°18'7 7.0
2014-Sep-29 19:33S 34°11' W 058°11'7 6.8
2014-Sep-29 18:33S 34°15' W 058°04'7 7.3
2014-Sep-29 17:33S 34°22' W 058°01'7 7.2
2014-Sep-29 16:33S 34°28' W 057°57'8 7.6
2014-Sep-29 15:33S 34°36' W 057°57'7 6.6
2014-Sep-29 14:33S 34°42' W 057°54'9 9.0
2014-Sep-29 13:33S 34°44' W 057°44'9 9.3
2014-Sep-29 12:33S 34°46' W 057°33'  
Track history (hours):
 
Tides and Currents Weather Stations Pressure Air Temp Water Temp Dewpoint Dewpoint Depression Visibility Wind Speed Wind Dir Waves Ship Positions

M/V Hera

Last reported at 2014-Sep-30 03:25 UTC. Time now 2014-Oct-01 06:04 UTC.
Position S 33°52' W 058°26'.

Length 175 m; draft 9.2 m.

Type: Cargo ship. MMSI: 538003917.

Date/timePositionNaut miles runAvg speedWind from/ knotsBaromVisibWave heightAir tempDewpointWater temp
2014-Sep-30 03:25S 33°52' W 058°26'0 0.0
2014-Sep-29 23:12S 33°52' W 058°26'17 6.5
2014-Sep-29 20:33S 34°08' W 058°18'7 7.0
2014-Sep-29 19:33S 34°11' W 058°11'7 6.8
2014-Sep-29 18:33S 34°15' W 058°04'7 7.3
2014-Sep-29 17:33S 34°22' W 058°01'7 7.2
2014-Sep-29 16:33S 34°28' W 057°57'8 7.6
2014-Sep-29 15:33S 34°36' W 057°57'7 6.6
2014-Sep-29 14:33S 34°42' W 057°54'9 9.0
2014-Sep-29 13:33S 34°44' W 057°44'9 9.3
2014-Sep-29 12:33S 34°46' W 057°33'  

Dump ship's entire track history